createdAt,value
2023-11-12T00:00:26.208Z,61.97
2023-11-12T00:02:52.841Z,67.55
2023-11-12T00:05:19.383Z,63.58
2023-11-12T00:07:46.116Z,66.18
2023-11-12T00:10:12.703Z,60.95
2023-11-12T00:12:42.178Z,66.43
2023-11-12T00:15:09.321Z,62.88
2023-11-12T00:17:35.819Z,63.50
2023-11-12T00:20:02.361Z,60.10
2023-11-12T00:22:28.847Z,59.33
2023-11-12T00:24:55.270Z,57.05
2023-11-12T00:27:21.817Z,60.00
2023-11-12T00:29:48.272Z,53.40
2023-11-12T00:32:14.787Z,59.38
2023-11-12T00:34:41.391Z,55.78
2023-11-12T00:37:07.888Z,55.42
2023-11-12T00:39:34.355Z,56.45
2023-11-12T00:42:00.784Z,53.50
2023-11-12T00:44:27.268Z,61.47
2023-11-12T00:46:53.757Z,56.15
2023-11-12T00:49:20.405Z,55.08
2023-11-12T00:51:47.636Z,53.50
2023-11-12T00:54:14.144Z,50.95
2023-11-12T00:56:40.599Z,56.20
2023-11-12T00:59:07.102Z,51.05
2023-11-12T01:01:33.661Z,48.53
2023-11-12T01:04:00.255Z,66.68
2023-11-12T01:06:26.769Z,45.83
2023-11-12T01:08:53.238Z,45.75
2023-11-12T01:11:19.797Z,46.60
2023-11-12T01:13:46.311Z,46.22
2023-11-12T01:16:13.008Z,46.55
2023-11-12T01:18:39.547Z,53.03
2023-11-12T01:21:06.078Z,45.83
2023-11-12T01:23:32.647Z,44.42
2023-11-12T01:25:59.086Z,46.08
2023-11-12T01:28:25.534Z,45.15
2023-11-12T01:30:51.978Z,39.85
2023-11-12T01:33:18.432Z,39.60
2023-11-12T01:35:45.052Z,38.97
2023-11-12T01:38:11.486Z,38.60
2023-11-12T01:40:38.437Z,40.50
2023-11-12T01:43:04.909Z,40.60
2023-11-12T01:45:31.365Z,36.85
2023-11-12T01:47:58.266Z,37.70
2023-11-12T01:50:24.838Z,39.58
2023-11-12T01:52:51.438Z,33.75
2023-11-12T01:55:21.922Z,40.28
2023-11-12T01:57:49.104Z,35.47
2023-11-12T02:00:15.857Z,35.63
2023-11-12T02:02:43.127Z,36.88
2023-11-12T02:05:09.619Z,42.58
2023-11-12T02:07:37.470Z,44.63
2023-11-12T02:10:05.140Z,39.42
2023-11-12T02:12:31.719Z,37.22
2023-11-12T02:14:58.215Z,35.72
2023-11-12T02:17:25.002Z,39.05
2023-11-12T02:19:51.464Z,36.90
2023-11-12T02:22:17.953Z,39.88
2023-11-12T02:24:44.430Z,40.50
2023-11-12T02:27:10.951Z,34.72
2023-11-12T02:29:37.404Z,37.47
2023-11-12T02:32:04.011Z,38.72
2023-11-12T02:34:30.458Z,42.40
2023-11-12T02:36:56.923Z,42.45
2023-11-12T02:39:23.373Z,37.97
2023-11-12T02:41:49.845Z,34.10
2023-11-12T02:44:16.282Z,38.50
2023-11-12T02:46:42.776Z,33.10
2023-11-12T02:49:23.297Z,34.30
2023-11-12T02:51:49.740Z,38.45
2023-11-12T02:54:16.227Z,38.72
2023-11-12T02:56:42.699Z,38.30
2023-11-12T02:59:09.254Z,38.03
2023-11-12T03:01:35.736Z,34.22
2023-11-12T03:04:02.289Z,41.67
2023-11-12T03:06:28.871Z,38.25
2023-11-12T03:08:55.326Z,37.92
2023-11-12T03:11:21.769Z,38.53
2023-11-12T03:13:48.226Z,34.10
2023-11-12T03:16:14.994Z,38.22
2023-11-12T03:18:41.512Z,37.28
2023-11-12T03:21:10.808Z,42.50
2023-11-12T03:23:37.297Z,37.65
2023-11-12T03:26:03.804Z,42.05
2023-11-12T03:28:30.246Z,40.10
2023-11-12T03:30:56.811Z,41.30
2023-11-12T03:33:23.352Z,37.33
2023-11-12T03:35:49.948Z,43.05
2023-11-12T03:38:16.561Z,42.33
2023-11-12T03:40:43.019Z,40.80
2023-11-12T03:43:09.473Z,40.30
2023-11-12T03:45:36.192Z,42.28
2023-11-12T03:48:03.893Z,39.92
2023-11-12T03:50:30.496Z,40.55
2023-11-12T03:52:57.078Z,39.10
2023-11-12T03:55:23.498Z,40.63
2023-11-12T03:57:49.975Z,43.42
2023-11-12T04:00:16.689Z,46.03
2023-11-12T04:02:43.227Z,44.35
2023-11-12T04:05:09.834Z,44.80
2023-11-12T04:07:36.381Z,46.85
2023-11-12T04:10:02.940Z,44.67
2023-11-12T04:12:29.436Z,44.05
2023-11-12T04:14:55.886Z,44.45
2023-11-12T04:17:22.332Z,45.67
2023-11-12T04:19:48.771Z,43.88
2023-11-12T04:22:15.209Z,48.67
2023-11-12T04:24:41.709Z,45.25
2023-11-12T04:27:08.170Z,48.58
2023-11-12T04:29:34.790Z,44.63
2023-11-12T04:32:01.370Z,46.58
2023-11-12T04:34:28.088Z,42.40
2023-11-12T04:36:54.517Z,43.33
2023-11-12T04:39:20.962Z,46.55
2023-11-12T04:41:47.420Z,45.63
2023-11-12T04:44:13.865Z,44.63
2023-11-12T04:46:40.335Z,41.00
2023-11-12T04:49:06.926Z,42.60
2023-11-12T04:51:33.541Z,43.38
2023-11-12T04:54:00.145Z,40.67
2023-11-12T04:56:26.699Z,41.78
2023-11-12T04:58:53.133Z,42.35
2023-11-12T05:01:19.624Z,46.25
2023-11-12T05:03:46.168Z,45.08
2023-11-12T05:06:12.821Z,43.92
2023-11-12T05:08:39.344Z,46.03
2023-11-12T05:11:05.772Z,45.60
2023-11-12T05:13:32.272Z,43.17
2023-11-12T05:15:58.907Z,45.45
2023-11-12T05:18:25.413Z,43.30
2023-11-12T05:20:51.856Z,37.35
2023-11-12T05:23:18.344Z,41.35
2023-11-12T05:25:45.246Z,39.85
2023-11-12T05:28:11.884Z,42.88
2023-11-12T05:30:39.482Z,41.88
2023-11-12T05:33:06.107Z,38.53
2023-11-12T05:35:33.638Z,36.88
2023-11-12T05:38:00.083Z,34.65
2023-11-12T05:40:26.520Z,37.35
2023-11-12T05:42:52.981Z,40.75
2023-11-12T05:45:19.735Z,35.92
2023-11-12T05:47:46.433Z,42.38
2023-11-12T05:50:12.982Z,40.45
2023-11-12T05:52:39.432Z,41.80
2023-11-12T05:55:06.277Z,43.13
2023-11-12T05:57:32.801Z,41.25
2023-11-12T05:59:59.307Z,43.63
2023-11-12T06:02:25.750Z,46.30
2023-11-12T06:04:52.197Z,39.72
2023-11-12T06:07:18.623Z,35.70
2023-11-12T06:09:45.107Z,41.55
2023-11-12T06:12:11.616Z,37.95
2023-11-12T06:14:38.152Z,40.30
2023-11-12T06:17:04.786Z,35.90
2023-11-12T06:19:31.312Z,41.30
2023-11-12T06:21:57.921Z,38.92
2023-11-12T06:24:24.433Z,39.25
2023-11-12T06:26:50.954Z,38.33
2023-11-12T06:29:17.383Z,45.47
2023-11-12T06:31:43.850Z,35.50
2023-11-12T06:34:10.401Z,43.47
2023-11-12T06:36:36.957Z,51.70
2023-11-12T06:39:03.397Z,37.15
2023-11-12T06:41:29.885Z,39.22
2023-11-12T06:43:56.329Z,39.40
2023-11-12T06:46:22.802Z,45.28
2023-11-12T06:48:49.324Z,40.08
2023-11-12T06:51:25.752Z,43.15
2023-11-12T06:53:52.678Z,43.28
2023-11-12T06:56:19.234Z,39.38
2023-11-12T06:58:45.739Z,42.08
2023-11-12T07:01:12.272Z,38.60
2023-11-12T07:03:39.681Z,43.05
2023-11-12T07:06:06.492Z,36.28
2023-11-12T07:08:33.240Z,40.05
2023-11-12T07:10:59.682Z,37.67
2023-11-12T07:13:26.124Z,40.38
2023-11-12T07:15:52.678Z,35.63
2023-11-12T07:18:19.244Z,32.42
2023-11-12T07:20:45.775Z,34.67
2023-11-12T07:23:12.228Z,40.70
2023-11-12T07:25:38.675Z,35.90
2023-11-12T07:28:05.154Z,29.10
2023-11-12T07:30:31.633Z,34.15
2023-11-12T07:32:58.112Z,35.95
2023-11-12T07:35:24.585Z,30.33
2023-11-12T07:37:51.069Z,35.17
2023-11-12T07:40:17.510Z,31.88
2023-11-12T07:42:43.998Z,32.55
2023-11-12T07:45:13.927Z,31.67
2023-11-12T07:47:42.144Z,37.45
2023-11-12T07:50:09.160Z,33.33
2023-11-12T07:52:35.803Z,27.73
2023-11-12T07:55:03.061Z,32.15
2023-11-12T07:57:29.575Z,30.52
2023-11-12T07:59:56.026Z,30.55
2023-11-12T08:02:23.728Z,26.73
2023-11-12T08:04:50.204Z,26.23
2023-11-12T08:07:16.640Z,36.15
2023-11-12T08:09:46.291Z,28.02
2023-11-12T08:12:13.085Z,25.63
2023-11-12T08:14:39.532Z,32.60
2023-11-12T08:17:05.980Z,27.35
2023-11-12T08:19:32.419Z,29.33
2023-11-12T08:21:58.898Z,31.40
2023-11-12T08:24:25.358Z,28.83
2023-11-12T08:26:51.820Z,30.63
2023-11-12T08:29:18.261Z,27.15
2023-11-12T08:31:44.970Z,32.17
2023-11-12T08:34:11.464Z,30.40
2023-11-12T08:36:37.987Z,33.10
2023-11-12T08:39:04.609Z,32.95
2023-11-12T08:41:31.041Z,29.73
2023-11-12T08:43:57.542Z,30.88
2023-11-12T08:46:24.024Z,27.20
2023-11-12T08:48:50.555Z,26.08
2023-11-12T08:51:17.163Z,26.58
2023-11-12T08:53:43.675Z,29.00
2023-11-12T08:56:10.135Z,34.38
2023-11-12T08:58:36.749Z,33.83
2023-11-12T09:01:05.522Z,32.35
2023-11-12T09:03:32.097Z,31.58
2023-11-12T09:05:58.579Z,33.75
2023-11-12T09:08:25.046Z,30.02
2023-11-12T09:10:51.507Z,30.23
2023-11-12T09:13:17.980Z,27.27
2023-11-12T09:15:44.448Z,34.97
2023-11-12T09:18:13.167Z,30.70
2023-11-12T09:20:39.635Z,29.85
2023-11-12T09:23:06.081Z,28.23
2023-11-12T09:25:32.641Z,27.83
2023-11-12T09:27:59.120Z,25.50
2023-11-12T09:30:25.618Z,26.20
2023-11-12T09:32:52.183Z,25.20
2023-11-12T09:35:18.749Z,26.73
2023-11-12T09:37:45.217Z,20.67
2023-11-12T09:40:12.245Z,19.90
2023-11-12T09:42:39.944Z,19.05
2023-11-12T09:45:07.906Z,21.60
2023-11-12T09:47:56.122Z,19.05
2023-11-12T09:50:24.086Z,18.48
2023-11-12T09:52:51.988Z,22.50
2023-11-12T09:55:20.257Z,16.85
2023-11-12T09:57:48.047Z,18.48
2023-11-12T10:00:15.248Z,18.35
2023-11-12T10:02:41.739Z,22.80
2023-11-12T10:05:08.581Z,19.90
2023-11-12T10:07:35.025Z,17.65
2023-11-12T10:10:19.770Z,19.65
2023-11-12T10:12:46.347Z,17.17
2023-11-12T10:15:12.811Z,21.35
2023-11-12T10:17:46.364Z,20.52
2023-11-12T10:20:30.248Z,20.95
2023-11-12T10:22:56.835Z,15.60
2023-11-12T10:25:43.279Z,18.23
2023-11-12T10:28:11.838Z,16.60
2023-11-12T10:30:57.023Z,16.70
2023-11-12T10:33:23.788Z,19.55
2023-11-12T10:35:50.525Z,22.60
2023-11-12T10:38:17.648Z,21.27
2023-11-12T10:41:00.203Z,21.05
2023-11-12T10:43:26.663Z,17.40
2023-11-12T10:45:58.838Z,21.10
2023-11-12T10:48:38.697Z,19.50
2023-11-12T10:51:07.657Z,18.20
2023-11-12T10:53:38.032Z,20.80
2023-11-12T10:56:05.236Z,17.00
2023-11-12T10:58:32.657Z,20.08
2023-11-12T11:01:00.963Z,18.92
2023-11-12T11:03:29.181Z,24.42
2023-11-12T11:05:57.422Z,15.60
2023-11-12T11:08:27.203Z,19.38
2023-11-12T11:10:54.599Z,16.77
2023-11-12T11:13:21.499Z,19.80
2023-11-12T11:15:49.576Z,16.38
2023-11-12T11:18:34.513Z,18.55
2023-11-12T11:21:03.681Z,16.10
2023-11-12T11:23:43.030Z,16.17
2023-11-12T11:26:24.759Z,13.15
2023-11-12T11:29:06.481Z,12.07
2023-11-12T11:31:33.661Z,13.23
2023-11-12T11:34:00.877Z,12.38
2023-11-12T11:36:27.925Z,13.05
2023-11-12T11:39:03.458Z,11.13
2023-11-12T11:41:48.593Z,12.63
2023-11-12T11:44:41.855Z,13.88
2023-11-12T11:47:16.300Z,11.05
2023-11-12T11:49:46.786Z,12.50
2023-11-12T11:52:22.239Z,12.10
2023-11-12T11:55:02.036Z,13.18
2023-11-12T11:57:29.128Z,14.23
2023-11-12T11:59:59.834Z,9.85
2023-11-12T12:02:26.857Z,13.18
2023-11-12T12:04:58.291Z,7.82
2023-11-12T12:07:29.437Z,8.98
2023-11-12T12:09:59.268Z,10.05
2023-11-12T12:12:26.773Z,5.72
2023-11-12T12:14:53.293Z,8.93
2023-11-12T12:17:19.881Z,7.03
2023-11-12T12:19:52.568Z,11.90
2023-11-12T12:22:25.894Z,8.57
2023-11-12T12:24:54.772Z,10.85
2023-11-12T12:27:21.295Z,7.13
2023-11-12T12:29:48.420Z,8.48
2023-11-12T12:32:16.708Z,7.15
2023-11-12T12:34:43.148Z,8.85
2023-11-12T12:37:09.640Z,8.95
2023-11-12T12:39:51.425Z,9.50
2023-11-12T12:42:18.050Z,12.27
2023-11-12T12:44:48.607Z,9.00
2023-11-12T12:47:38.037Z,8.85
2023-11-12T12:50:17.889Z,8.50
2023-11-12T12:52:46.501Z,7.82
2023-11-12T12:55:16.685Z,7.00
2023-11-12T12:57:44.586Z,8.93
2023-11-12T13:00:11.625Z,6.88
2023-11-12T13:02:41.890Z,10.48
2023-11-12T13:05:10.069Z,6.88
2023-11-12T13:07:36.535Z,14.38
2023-11-12T13:10:03.230Z,8.15
2023-11-12T13:12:29.753Z,8.50
2023-11-12T13:14:56.250Z,6.45
2023-11-12T13:17:22.674Z,8.13
2023-11-12T13:19:49.391Z,10.35
2023-11-12T13:22:15.866Z,7.55
2023-11-12T13:24:42.610Z,4.15
2023-11-12T13:27:09.099Z,6.63
2023-11-12T13:29:35.598Z,5.60
2023-11-12T13:32:02.119Z,7.65
2023-11-12T13:34:28.585Z,6.60
2023-11-12T13:36:55.079Z,8.73
2023-11-12T13:39:21.562Z,6.07
2023-11-12T13:41:48.077Z,6.93
2023-11-12T13:44:14.560Z,2.65
2023-11-12T13:46:41.028Z,4.40
2023-11-12T13:49:07.607Z,7.28
2023-11-12T13:51:34.168Z,6.15
2023-11-12T13:54:00.605Z,6.38
2023-11-12T13:56:27.059Z,4.13
2023-11-12T13:58:53.497Z,5.38
2023-11-12T14:01:23.730Z,6.65
2023-11-12T14:03:50.706Z,5.00
2023-11-12T14:06:17.812Z,7.13
2023-11-12T14:08:44.376Z,5.35
2023-11-12T14:11:10.822Z,6.63
2023-11-12T14:13:37.239Z,3.70
2023-11-12T14:16:04.023Z,9.38
2023-11-12T14:18:30.572Z,3.72
2023-11-12T14:20:57.056Z,4.88
2023-11-12T14:23:23.478Z,6.07
2023-11-12T14:25:49.922Z,5.38
2023-11-12T14:28:16.348Z,4.28
2023-11-12T14:30:42.846Z,3.90
2023-11-12T14:33:09.363Z,5.80
2023-11-12T14:35:35.848Z,4.93
2023-11-12T14:38:02.674Z,4.30
2023-11-12T14:40:29.126Z,3.88
2023-11-12T14:42:55.617Z,4.40
2023-11-12T14:45:28.736Z,4.78
2023-11-12T14:47:57.587Z,6.55
2023-11-12T14:50:24.044Z,6.03
2023-11-12T14:52:50.615Z,7.53
2023-11-12T14:55:24.449Z,4.05
2023-11-12T14:57:52.707Z,5.00
2023-11-12T15:00:19.260Z,3.38
2023-11-12T15:02:46.691Z,4.60
2023-11-12T15:05:15.139Z,6.07
2023-11-12T15:07:41.549Z,4.95
2023-11-12T15:10:08.661Z,4.90
2023-11-12T15:12:35.313Z,2.97
2023-11-12T15:15:02.889Z,6.47
2023-11-12T15:17:31.384Z,5.60
2023-11-12T15:19:59.325Z,4.43
2023-11-12T15:22:25.754Z,7.63
2023-11-12T15:24:52.255Z,4.70
2023-11-12T15:27:18.768Z,7.47
2023-11-12T15:29:45.200Z,7.03
2023-11-12T15:32:11.653Z,5.25
2023-11-12T15:34:38.083Z,4.47
2023-11-12T15:37:04.973Z,7.07
2023-11-12T15:39:31.470Z,6.85
2023-11-12T15:41:57.900Z,4.65
2023-11-12T15:44:24.344Z,7.22
2023-11-12T15:46:53.757Z,6.22
2023-11-12T15:49:20.279Z,7.47
2023-11-12T15:51:46.740Z,4.72
2023-11-12T15:54:13.176Z,7.95
2023-11-12T15:56:39.627Z,6.13
2023-11-12T15:59:06.107Z,8.65
2023-11-12T16:01:32.662Z,7.28
2023-11-12T16:03:59.241Z,8.05
2023-11-12T16:06:25.766Z,7.75
2023-11-12T16:08:56.326Z,8.13
2023-11-12T16:11:23.334Z,6.22
2023-11-12T16:13:49.780Z,5.72
2023-11-12T16:16:16.254Z,8.18
2023-11-12T16:18:42.747Z,5.15
2023-11-12T16:21:09.238Z,8.88
2023-11-12T16:23:35.674Z,8.32
2023-11-12T16:26:02.119Z,5.63
2023-11-12T16:28:28.572Z,5.32
2023-11-12T16:30:55.129Z,8.27
2023-11-12T16:33:21.700Z,9.00
2023-11-12T16:35:48.159Z,7.05
2023-11-12T16:38:14.802Z,10.48
2023-11-12T16:40:41.353Z,5.63
2023-11-12T16:43:07.877Z,5.57
2023-11-12T16:45:34.346Z,7.68
2023-11-12T16:48:00.879Z,9.52
2023-11-12T16:50:27.350Z,7.50
2023-11-12T16:52:53.799Z,11.02
2023-11-12T16:55:20.257Z,9.13
2023-11-12T16:57:46.789Z,8.68
2023-11-12T17:00:13.603Z,9.13
2023-11-12T17:02:40.390Z,9.50
2023-11-12T17:05:07.189Z,9.77
2023-11-12T17:07:34.015Z,14.35
2023-11-12T17:10:00.528Z,15.15
2023-11-12T17:12:27.006Z,17.38
2023-11-12T17:14:53.464Z,24.33
2023-11-12T17:17:19.911Z,34.03
2023-11-12T17:19:46.348Z,24.55
2023-11-12T17:22:12.816Z,20.88
2023-11-12T17:24:39.446Z,21.63
2023-11-12T17:27:05.948Z,23.25
2023-11-12T17:29:32.414Z,29.88
2023-11-12T17:31:58.895Z,24.38
2023-11-12T17:34:25.341Z,17.80
2023-11-12T17:36:51.801Z,17.92
2023-11-12T17:39:18.253Z,17.75
2023-11-12T17:41:45.173Z,18.17
2023-11-12T17:44:11.617Z,15.13
2023-11-12T17:46:38.173Z,15.57
2023-11-12T17:49:04.698Z,19.10
2023-11-12T17:51:31.175Z,13.88
2023-11-12T17:53:57.613Z,15.00
2023-11-12T17:56:24.097Z,12.85
2023-11-12T17:58:50.529Z,12.38
2023-11-12T18:01:17.625Z,25.77
2023-11-12T18:03:44.265Z,14.23
2023-11-12T18:06:11.202Z,13.15
2023-11-12T18:08:37.784Z,18.88
2023-11-12T18:11:05.229Z,13.77
2023-11-12T18:13:34.304Z,14.82
2023-11-12T18:16:01.963Z,12.68
2023-11-12T18:18:28.511Z,14.32
2023-11-12T18:20:55.128Z,14.73
2023-11-12T18:23:21.846Z,13.00
2023-11-12T18:25:48.276Z,15.18
2023-11-12T18:28:14.729Z,15.05
2023-11-12T18:30:48.553Z,17.02
2023-11-12T18:35:43.865Z,15.05
2023-11-12T18:38:12.357Z,16.73
2023-11-12T18:40:39.815Z,23.95
2023-11-12T18:43:06.304Z,17.15
2023-11-12T18:45:32.767Z,14.75
2023-11-12T18:47:59.693Z,15.05
2023-11-12T18:50:26.288Z,13.95
2023-11-12T18:52:52.728Z,14.82
2023-11-12T18:55:19.194Z,20.33
2023-11-12T18:57:46.115Z,15.85
2023-11-12T19:00:14.016Z,16.80
2023-11-12T19:02:40.963Z,13.95
2023-11-12T19:05:08.387Z,16.38
2023-11-12T19:07:35.492Z,14.68
2023-11-12T19:10:03.252Z,16.80
2023-11-12T19:12:29.736Z,15.00
2023-11-12T19:14:56.177Z,14.38
2023-11-12T19:17:22.696Z,15.57
2023-11-12T19:19:49.337Z,14.40
2023-11-12T19:22:15.823Z,18.20
2023-11-12T19:24:42.725Z,18.90
2023-11-12T19:27:09.296Z,16.42
2023-11-12T19:29:35.760Z,15.27
2023-11-12T19:32:02.350Z,16.88
2023-11-12T19:34:30.179Z,15.60
2023-11-12T19:36:57.710Z,14.48
2023-11-12T19:39:24.388Z,21.13
2023-11-12T19:41:51.065Z,13.60
2023-11-12T19:44:17.518Z,19.83
2023-11-12T19:46:44.556Z,17.58
2023-11-12T19:49:11.627Z,15.85
2023-11-12T19:51:41.945Z,17.63
2023-11-12T19:54:09.349Z,15.20
2023-11-12T19:56:35.774Z,17.35
2023-11-12T19:59:02.229Z,16.83
2023-11-12T20:01:29.392Z,15.57
2023-11-12T20:03:56.904Z,18.45
2023-11-12T20:06:24.115Z,15.23
2023-11-12T20:08:50.915Z,17.00
2023-11-12T20:11:19.791Z,18.05
2023-11-12T20:13:47.727Z,16.85
2023-11-12T20:16:19.875Z,19.33
2023-11-12T20:18:46.435Z,16.42
2023-11-12T20:21:13.031Z,16.67
2023-11-12T20:23:41.670Z,18.20
2023-11-12T20:26:08.201Z,23.10
2023-11-12T20:28:35.135Z,22.08
2023-11-12T20:31:02.211Z,20.58
2023-11-12T20:33:28.696Z,23.70
2023-11-12T20:35:55.655Z,28.58
2023-11-12T20:38:22.096Z,25.13
2023-11-12T20:40:48.508Z,24.38
2023-11-12T20:43:15.010Z,20.98
2023-11-12T20:45:41.827Z,21.95
2023-11-12T20:48:08.822Z,17.33
2023-11-12T20:50:36.700Z,16.60
2023-11-12T20:53:04.583Z,23.15
2023-11-12T20:55:31.023Z,15.95
2023-11-12T20:57:57.796Z,16.10
2023-11-12T21:00:24.318Z,15.05
2023-11-12T21:02:51.109Z,14.50
2023-11-12T21:05:18.076Z,15.82
2023-11-12T21:07:44.519Z,15.80
2023-11-12T21:10:11.003Z,19.13
2023-11-12T21:12:37.467Z,12.30
2023-11-12T21:15:04.482Z,17.08
2023-11-12T21:17:30.929Z,20.35
2023-11-12T21:19:57.391Z,14.02
2023-11-12T21:22:23.857Z,15.00
2023-11-12T21:24:50.318Z,13.75
2023-11-12T21:27:16.973Z,14.68
2023-11-12T21:29:43.431Z,16.92
2023-11-12T21:32:09.943Z,17.23
2023-11-12T21:34:37.756Z,16.98
2023-11-12T21:37:04.527Z,18.13
2023-11-12T21:39:30.973Z,18.52
2023-11-12T21:41:57.420Z,16.85
2023-11-12T21:44:23.996Z,39.10
2023-11-12T21:46:50.519Z,35.38
2023-11-12T21:49:17.099Z,32.47
2023-11-12T21:51:43.637Z,23.42
2023-11-12T21:54:10.066Z,22.02
2023-11-12T21:56:36.509Z,17.20
2023-11-12T21:59:03.365Z,17.65
2023-11-12T22:01:29.950Z,18.17
2023-11-12T22:03:56.530Z,18.33
2023-11-12T22:06:23.062Z,13.65
2023-11-12T22:08:49.489Z,16.20
2023-11-12T22:11:16.311Z,13.35
2023-11-12T22:13:42.742Z,13.93
2023-11-12T22:16:09.216Z,13.63
2023-11-12T22:18:35.696Z,11.68
2023-11-12T22:21:02.197Z,16.08
2023-11-12T22:23:28.645Z,15.32
2023-11-12T22:25:55.131Z,16.02
2023-11-12T22:28:21.728Z,12.73
2023-11-12T22:30:48.240Z,12.32
2023-11-12T22:33:14.726Z,13.70
2023-11-12T22:35:41.174Z,13.63
2023-11-12T22:38:07.624Z,12.07
2023-11-12T22:40:34.060Z,15.52
2023-11-12T22:43:00.606Z,11.38
2023-11-12T22:45:27.062Z,14.23
2023-11-12T22:47:53.609Z,14.35
2023-11-12T22:50:20.236Z,19.55
2023-11-12T22:52:46.710Z,11.60
2023-11-12T22:55:13.490Z,12.05
2023-11-12T22:57:40.560Z,11.20
2023-11-12T23:00:07.898Z,12.73
2023-11-12T23:02:34.438Z,15.27
2023-11-12T23:05:00.932Z,11.27
2023-11-12T23:07:27.394Z,13.20
2023-11-12T23:09:54.099Z,13.70
2023-11-12T23:12:20.560Z,13.13
2023-11-12T23:14:47.024Z,17.10
2023-11-12T23:17:13.510Z,11.70
2023-11-12T23:19:39.988Z,15.98
2023-11-12T23:22:06.503Z,13.98
2023-11-12T23:24:33.007Z,11.60
2023-11-12T23:26:59.517Z,12.25
2023-11-12T23:29:26.099Z,13.30
2023-11-12T23:31:52.628Z,13.30
2023-11-12T23:34:19.190Z,13.15
2023-11-12T23:36:45.679Z,12.43
2023-11-12T23:39:12.192Z,12.15
2023-11-12T23:41:38.637Z,13.88
2023-11-12T23:44:05.191Z,13.65
2023-11-12T23:46:31.702Z,18.90
2023-11-12T23:48:58.301Z,14.88
2023-11-12T23:51:24.767Z,15.88
2023-11-12T23:53:51.194Z,14.32
2023-11-12T23:56:17.663Z,10.48
2023-11-12T23:58:44.116Z,11.85
